createdAt,value
2022-08-31T00:00:11.810Z,99332.88
2022-08-31T00:02:57.517Z,99337.13
2022-08-31T00:05:24.712Z,99315.00
2022-08-31T00:07:52.654Z,99305.97
2022-08-31T00:10:31.914Z,99315.59
2022-08-31T00:13:00.643Z,99300.94
2022-08-31T00:15:30.187Z,99311.16
2022-08-31T00:17:57.833Z,99318.94
2022-08-31T00:20:33.705Z,99325.75
2022-08-31T00:23:13.624Z,99338.03
2022-08-31T00:25:44.281Z,99311.09
2022-08-31T00:28:12.079Z,99311.50
2022-08-31T00:30:39.449Z,99285.00
2022-08-31T00:33:06.907Z,99272.81
2022-08-31T00:35:36.577Z,99322.19
2022-08-31T00:38:04.889Z,99292.28
2022-08-31T00:40:32.572Z,99286.22
2022-08-31T00:43:04.601Z,99254.50
2022-08-31T00:45:32.450Z,99227.66
2022-08-31T00:47:59.236Z,99235.78
2022-08-31T00:50:26.178Z,99250.53
2022-08-31T00:53:00.145Z,99247.88
2022-08-31T00:55:35.052Z,99222.47
2022-08-31T00:58:09.310Z,99179.34
2022-08-31T01:00:36.666Z,99179.75
2022-08-31T01:03:06.415Z,99156.53
2022-08-31T01:05:34.882Z,99150.78
2022-08-31T01:08:03.147Z,99165.69
2022-08-31T01:10:38.692Z,99150.41
2022-08-31T01:13:06.163Z,99145.03
2022-08-31T01:15:33.514Z,99125.63
2022-08-31T01:18:03.688Z,99111.84
2022-08-31T01:20:30.452Z,99119.47
2022-08-31T01:23:09.116Z,99119.69
2022-08-31T01:25:37.824Z,99119.66
2022-08-31T01:28:08.060Z,99112.09
2022-08-31T01:30:35.724Z,99091.56
2022-08-31T01:33:03.350Z,99104.19
2022-08-31T01:35:30.716Z,99112.19
2022-08-31T01:37:57.871Z,99109.13
2022-08-31T01:40:36.361Z,99124.16
2022-08-31T01:43:03.167Z,99108.84
2022-08-31T01:45:30.204Z,99114.06
2022-08-31T01:47:59.301Z,99127.00
2022-08-31T01:50:26.137Z,99122.56
2022-08-31T01:52:52.840Z,99133.91
2022-08-31T01:55:20.304Z,99149.28
2022-08-31T01:57:47.022Z,99139.16
2022-08-31T02:00:14.225Z,99141.41
2022-08-31T02:02:41.978Z,99190.41
2022-08-31T02:05:10.317Z,99171.59
2022-08-31T02:07:37.041Z,99179.47
2022-08-31T02:10:05.265Z,99152.97
2022-08-31T02:12:32.005Z,99148.78
2022-08-31T02:14:58.839Z,99163.03
2022-08-31T02:17:25.529Z,99150.56
2022-08-31T02:19:54.400Z,99144.47
2022-08-31T02:22:23.353Z,99147.56
2022-08-31T02:24:50.086Z,99136.09
2022-08-31T02:27:16.767Z,99144.13
2022-08-31T02:29:43.600Z,99141.75
2022-08-31T02:32:19.968Z,99130.06
2022-08-31T02:34:48.504Z,99134.31
2022-08-31T02:37:15.727Z,99127.34
2022-08-31T02:39:44.236Z,99136.59
2022-08-31T02:42:11.189Z,99134.00
2022-08-31T02:44:37.862Z,99120.44
2022-08-31T02:47:04.688Z,99121.56
2022-08-31T02:49:34.358Z,99130.63
2022-08-31T02:52:01.001Z,99105.06
2022-08-31T02:54:28.393Z,99100.13
2022-08-31T02:56:55.081Z,99139.22
2022-08-31T02:59:21.857Z,99148.34
2022-08-31T03:01:48.825Z,99135.28
2022-08-31T03:04:15.627Z,99136.28
2022-08-31T03:06:42.636Z,99128.69
2022-08-31T03:09:09.472Z,99109.97
2022-08-31T03:11:36.197Z,99105.75
2022-08-31T03:14:02.972Z,99101.59
2022-08-31T03:16:29.585Z,99098.13
2022-08-31T03:18:56.346Z,99101.47
2022-08-31T03:21:22.994Z,99087.06
2022-08-31T03:23:49.708Z,99084.22
2022-08-31T03:26:17.932Z,99098.59
2022-08-31T03:28:44.704Z,99105.97
2022-08-31T03:31:11.458Z,99100.59
2022-08-31T03:33:38.384Z,99112.72
2022-08-31T03:36:05.756Z,99117.28
2022-08-31T03:38:33.317Z,99098.19
2022-08-31T03:41:02.780Z,99088.31
2022-08-31T03:43:29.486Z,99073.66
2022-08-31T03:45:56.342Z,99089.16
2022-08-31T03:48:23.228Z,99087.63
2022-08-31T03:50:50.328Z,99104.50
2022-08-31T03:53:22.967Z,99081.50
2022-08-31T03:55:50.028Z,99071.81
2022-08-31T03:58:16.911Z,99061.59
2022-08-31T04:00:44.454Z,99068.47
2022-08-31T04:03:11.693Z,99055.06
2022-08-31T04:05:43.123Z,99061.97
2022-08-31T04:08:09.900Z,99036.69
2022-08-31T04:10:39.971Z,99033.31
2022-08-31T04:13:06.645Z,99028.31
2022-08-31T04:15:35.823Z,99024.88
2022-08-31T04:18:02.572Z,99029.88
2022-08-31T04:20:30.158Z,99024.59
2022-08-31T04:22:57.005Z,99015.88
2022-08-31T04:25:23.685Z,99015.94
2022-08-31T04:27:50.803Z,99030.75
2022-08-31T04:30:18.251Z,99025.56
2022-08-31T04:32:44.933Z,99036.22
2022-08-31T04:35:11.685Z,99044.03
2022-08-31T04:37:46.421Z,99042.81
2022-08-31T04:40:19.873Z,99048.75
2022-08-31T04:42:48.056Z,99059.13
2022-08-31T04:45:16.839Z,99065.72
2022-08-31T04:47:43.947Z,99077.22
2022-08-31T04:50:14.613Z,99086.28
2022-08-31T04:52:45.186Z,99079.47
2022-08-31T04:55:32.112Z,99091.94
2022-08-31T04:57:58.807Z,99098.97
2022-08-31T05:00:26.071Z,99104.44
2022-08-31T05:02:54.385Z,99111.59
2022-08-31T05:05:21.174Z,99114.66
2022-08-31T05:07:48.192Z,99117.88
2022-08-31T05:10:15.307Z,99124.28
2022-08-31T05:12:42.081Z,99112.81
2022-08-31T05:15:08.984Z,99030.50
2022-08-31T05:17:35.741Z,99025.72
2022-08-31T05:20:02.616Z,99023.00
2022-08-31T05:22:30.169Z,99039.13
2022-08-31T05:24:59.504Z,99044.25
2022-08-31T05:27:26.211Z,99070.97
2022-08-31T05:29:53.060Z,99081.31
2022-08-31T05:32:19.657Z,99073.97
2022-08-31T05:34:46.448Z,99099.88
2022-08-31T05:37:14.388Z,99116.97
2022-08-31T05:39:41.200Z,99132.66
2022-08-31T05:42:07.908Z,99161.41
2022-08-31T05:44:36.231Z,99159.19
2022-08-31T05:47:06.967Z,99207.16
2022-08-31T05:49:34.522Z,99219.66
2022-08-31T05:52:04.196Z,99228.47
2022-08-31T05:54:39.776Z,99254.69
2022-08-31T05:57:09.082Z,99263.50
2022-08-31T05:59:35.985Z,99275.03
2022-08-31T06:02:03.424Z,99312.19
2022-08-31T06:04:30.257Z,99309.59
2022-08-31T06:06:58.269Z,99337.47
2022-08-31T06:09:27.491Z,99353.94
2022-08-31T06:11:54.354Z,99349.63
2022-08-31T06:14:23.037Z,99363.41
2022-08-31T06:16:50.455Z,99364.38
2022-08-31T06:19:17.168Z,99401.19
2022-08-31T06:21:49.669Z,99418.00
2022-08-31T06:24:18.958Z,99420.53
2022-08-31T06:26:58.050Z,99432.06
2022-08-31T06:29:27.240Z,99436.25
2022-08-31T06:31:54.098Z,99454.97
2022-08-31T06:34:21.399Z,99468.44
2022-08-31T06:36:48.561Z,99462.06
2022-08-31T06:39:16.178Z,99467.81
2022-08-31T06:41:43.661Z,99470.88
2022-08-31T06:44:12.813Z,99512.03
2022-08-31T06:46:41.102Z,99514.63
2022-08-31T06:49:08.707Z,99513.97
2022-08-31T06:51:38.833Z,99524.56
2022-08-31T06:54:28.360Z,99529.69
2022-08-31T06:56:59.794Z,99556.94
2022-08-31T06:59:29.098Z,99552.63
2022-08-31T07:01:57.551Z,99561.44
2022-08-31T07:04:24.422Z,99590.94
2022-08-31T07:06:51.262Z,99589.34
2022-08-31T07:09:18.335Z,99611.94
2022-08-31T07:11:49.252Z,99623.97
2022-08-31T07:14:22.073Z,99631.69
2022-08-31T07:16:49.430Z,99644.03
2022-08-31T07:19:16.413Z,99634.13
2022-08-31T07:21:46.357Z,99641.00
2022-08-31T07:24:15.632Z,99647.75
2022-08-31T07:26:48.760Z,99672.78
2022-08-31T07:29:21.398Z,99674.75
2022-08-31T07:31:48.693Z,99682.59
2022-08-31T07:34:21.485Z,99698.16
2022-08-31T07:37:06.495Z,99687.72
2022-08-31T07:39:54.744Z,99727.84
2022-08-31T07:42:32.836Z,99733.63
2022-08-31T07:45:05.028Z,99744.34
2022-08-31T07:47:32.588Z,99745.34
2022-08-31T07:50:01.283Z,99732.19
2022-08-31T07:52:32.863Z,99706.84
2022-08-31T07:55:09.454Z,99713.09
2022-08-31T07:57:44.364Z,99752.56
2022-08-31T08:00:14.628Z,99764.94
2022-08-31T08:02:50.802Z,99776.81
2022-08-31T08:05:27.575Z,99775.56
2022-08-31T08:07:58.874Z,99782.13
2022-08-31T08:10:26.354Z,99780.84
2022-08-31T08:13:04.822Z,99774.72
2022-08-31T08:15:35.769Z,99788.84
2022-08-31T08:18:03.519Z,99823.56
2022-08-31T08:20:35.289Z,99806.38
2022-08-31T08:23:27.700Z,99830.94
2022-08-31T08:25:56.276Z,99816.63
2022-08-31T08:28:42.338Z,99845.25
2022-08-31T08:31:18.604Z,99841.53
2022-08-31T08:33:46.678Z,99838.94
2022-08-31T08:36:17.066Z,99849.72
2022-08-31T08:38:46.360Z,99848.94
2022-08-31T08:41:34.641Z,99864.31
2022-08-31T08:44:05.177Z,99885.88
2022-08-31T08:46:49.761Z,99879.25
2022-08-31T08:49:22.419Z,99892.47
2022-08-31T08:51:56.636Z,99891.16
2022-08-31T08:54:34.605Z,99905.94
2022-08-31T08:57:08.735Z,99903.69
2022-08-31T08:59:35.709Z,99910.28
2022-08-31T09:02:07.157Z,99908.50
2022-08-31T09:04:42.916Z,99908.50
2022-08-31T09:07:41.360Z,99915.75
2022-08-31T09:10:45.734Z,99909.16
2022-08-31T09:13:20.946Z,99905.63
2022-08-31T09:16:26.339Z,99911.19
2022-08-31T09:18:55.171Z,99912.31
2022-08-31T09:21:29.329Z,99919.72
2022-08-31T09:24:02.692Z,99933.34
2022-08-31T09:26:49.377Z,99933.97
2022-08-31T09:29:31.388Z,99943.59
2022-08-31T09:32:07.783Z,99937.44
2022-08-31T09:34:38.656Z,99935.25
2022-08-31T09:37:26.722Z,99938.09
2022-08-31T09:39:54.704Z,99949.50
2022-08-31T09:42:32.050Z,99944.03
2022-08-31T09:45:03.974Z,99946.16
2022-08-31T09:47:48.833Z,99952.94
2022-08-31T09:50:36.085Z,99958.63
2022-08-31T09:53:48.057Z,99962.34
2022-08-31T09:56:19.968Z,99970.22
2022-08-31T09:58:59.205Z,99949.41
2022-08-31T10:01:45.443Z,99947.66
2022-08-31T10:04:28.967Z,99962.31
2022-08-31T10:07:11.372Z,99955.22
2022-08-31T10:09:47.347Z,99950.84
2022-08-31T10:12:21.715Z,99956.00
2022-08-31T10:14:56.989Z,99952.94
2022-08-31T10:17:32.557Z,99948.25
2022-08-31T10:20:10.609Z,99959.38
2022-08-31T10:22:42.248Z,99960.97
2022-08-31T10:25:38.484Z,99969.34
2022-08-31T10:28:14.871Z,99998.66
2022-08-31T10:31:03.214Z,99985.72
2022-08-31T10:34:17.149Z,99964.09
2022-08-31T10:36:47.264Z,99970.94
2022-08-31T10:39:25.067Z,99983.31
2022-08-31T10:41:52.344Z,99989.78
2022-08-31T10:44:52.268Z,99999.00
2022-08-31T10:47:24.935Z,100003.56
2022-08-31T10:50:03.553Z,100002.28
2022-08-31T10:52:34.832Z,100007.31
2022-08-31T10:55:13.218Z,100015.06
2022-08-31T10:57:53.236Z,100007.31
2022-08-31T11:00:41.927Z,100011.50
2022-08-31T11:03:46.173Z,100004.75
2022-08-31T11:06:26.936Z,100003.75
2022-08-31T11:09:20.609Z,100010.19
2022-08-31T11:11:58.249Z,100000.34
2022-08-31T11:14:34.508Z,99995.13
2022-08-31T11:17:26.784Z,99985.91
2022-08-31T11:20:21.499Z,99998.34
2022-08-31T11:23:10.405Z,99993.00
2022-08-31T11:26:14.272Z,99977.22
2022-08-31T11:28:49.927Z,99984.09
2022-08-31T11:31:27.209Z,99984.00
2022-08-31T11:34:25.687Z,99986.44
2022-08-31T11:36:57.603Z,100002.41
2022-08-31T11:39:37.384Z,100006.75
2022-08-31T11:42:12.601Z,100018.88
2022-08-31T11:44:43.520Z,100007.84
2022-08-31T11:47:15.352Z,100003.22
2022-08-31T11:49:50.018Z,100009.44
2022-08-31T11:52:29.153Z,100008.31
2022-08-31T11:55:02.996Z,100018.81
2022-08-31T11:57:37.452Z,100024.03
2022-08-31T12:00:20.092Z,100020.03
2022-08-31T12:03:03.444Z,100021.50
2022-08-31T12:05:54.441Z,100026.53
2022-08-31T12:08:21.324Z,100020.59
2022-08-31T12:11:12.138Z,100019.91
2022-08-31T12:14:19.481Z,100018.00
2022-08-31T12:17:10.217Z,100010.25
2022-08-31T12:20:01.729Z,100014.53
2022-08-31T12:23:31.208Z,100015.88
2022-08-31T12:26:28.725Z,100027.75
2022-08-31T12:29:10.591Z,100030.84
2022-08-31T12:31:40.000Z,100035.53
2022-08-31T12:34:17.086Z,100047.06
2022-08-31T12:36:44.193Z,100044.84
2022-08-31T12:39:20.387Z,100043.06
2022-08-31T12:42:01.221Z,100033.00
2022-08-31T12:44:32.509Z,100024.53
2022-08-31T12:47:11.991Z,100024.69
2022-08-31T12:49:41.441Z,100025.88
2022-08-31T12:52:28.413Z,100021.22
2022-08-31T12:55:30.393Z,100028.78
2022-08-31T12:58:19.835Z,100024.22
2022-08-31T13:00:46.629Z,100023.50
2022-08-31T13:03:24.970Z,100029.00
2022-08-31T13:06:13.769Z,100023.75
2022-08-31T13:08:45.757Z,100031.31
2022-08-31T13:11:41.052Z,100053.50
2022-08-31T13:14:13.179Z,100065.28
2022-08-31T13:16:50.371Z,100067.03
2022-08-31T13:19:25.718Z,100075.94
2022-08-31T13:22:07.896Z,100079.38
2022-08-31T13:24:41.404Z,100084.19
2022-08-31T13:27:24.761Z,100083.72
2022-08-31T13:29:53.511Z,100088.88
2022-08-31T13:32:49.939Z,100110.25
2022-08-31T13:35:21.154Z,100101.22
2022-08-31T13:38:05.121Z,100093.91
2022-08-31T13:40:39.488Z,100105.91
2022-08-31T13:43:09.649Z,100113.13
2022-08-31T13:45:43.725Z,100118.75
2022-08-31T13:48:15.067Z,100111.91
2022-08-31T13:50:53.781Z,100118.34
2022-08-31T13:53:52.941Z,100117.97
2022-08-31T13:56:49.199Z,100114.44
2022-08-31T13:59:24.540Z,100113.75
2022-08-31T14:02:02.016Z,100122.22
2022-08-31T14:05:03.335Z,100141.13
2022-08-31T14:07:35.548Z,100132.97
2022-08-31T14:10:18.824Z,100135.50
2022-08-31T14:12:46.553Z,100127.47
2022-08-31T14:15:35.279Z,100131.00
2022-08-31T14:18:40.871Z,100139.78
2022-08-31T14:21:24.419Z,100128.34
2022-08-31T14:24:02.865Z,100125.59
2022-08-31T14:26:35.151Z,100117.16
2022-08-31T14:29:10.708Z,100103.22
2022-08-31T14:31:52.227Z,100102.53
2022-08-31T14:34:30.469Z,100094.63
2022-08-31T14:37:06.831Z,100089.00
2022-08-31T14:39:33.587Z,100091.53
2022-08-31T14:42:07.625Z,100077.81
2022-08-31T14:44:43.049Z,100083.06
2022-08-31T14:47:10.278Z,100075.75
2022-08-31T14:49:39.196Z,100080.78
2022-08-31T14:52:06.766Z,100071.03
2022-08-31T14:54:37.724Z,100064.75
2022-08-31T14:57:14.804Z,100065.44
2022-08-31T14:59:43.868Z,100052.63
2022-08-31T15:02:12.999Z,100045.06
2022-08-31T15:04:45.358Z,100063.81
2022-08-31T15:07:13.713Z,100069.31
2022-08-31T15:09:42.723Z,100073.88
2022-08-31T15:12:14.614Z,100061.88
2022-08-31T15:14:44.703Z,100050.81
2022-08-31T15:17:16.681Z,100053.31
2022-08-31T15:19:46.530Z,100057.19
2022-08-31T15:22:15.836Z,100061.34
2022-08-31T15:24:45.597Z,100054.91
2022-08-31T15:27:15.198Z,100053.88
2022-08-31T15:29:47.492Z,100054.91
2022-08-31T15:32:19.864Z,100047.34
2022-08-31T15:34:58.216Z,100049.03
2022-08-31T15:37:31.745Z,100031.31
2022-08-31T15:40:03.837Z,100009.56
2022-08-31T15:42:31.770Z,99980.28
2022-08-31T15:44:58.923Z,99966.78
2022-08-31T15:47:50.736Z,99984.41
2022-08-31T15:50:20.135Z,99984.41
2022-08-31T15:52:51.177Z,99997.25
2022-08-31T15:55:26.532Z,99999.53
2022-08-31T15:57:55.170Z,99996.34
2022-08-31T16:00:27.280Z,100010.75
2022-08-31T16:02:57.235Z,100024.25
2022-08-31T16:05:28.363Z,100055.06
2022-08-31T16:07:57.331Z,100073.19
2022-08-31T16:10:24.638Z,100089.78
2022-08-31T16:12:52.043Z,100093.47
2022-08-31T16:15:23.304Z,100094.06
2022-08-31T16:17:51.297Z,100108.16
2022-08-31T16:20:18.001Z,100112.84
2022-08-31T16:22:45.518Z,100098.97
2022-08-31T16:25:14.277Z,100112.50
2022-08-31T16:27:43.514Z,100113.00
2022-08-31T16:30:12.007Z,100114.78
2022-08-31T16:32:38.759Z,100108.06
2022-08-31T16:35:06.518Z,100101.97
2022-08-31T16:37:33.763Z,100088.75
2022-08-31T16:40:00.727Z,100076.59
2022-08-31T16:42:27.633Z,100063.03
2022-08-31T16:44:59.821Z,100050.66
2022-08-31T16:47:29.292Z,100043.19
2022-08-31T16:49:56.862Z,100060.84
2022-08-31T16:52:27.264Z,100054.00
2022-08-31T16:54:59.140Z,100073.63
2022-08-31T16:57:28.913Z,100084.31
2022-08-31T16:59:57.390Z,100084.50
2022-08-31T17:02:25.002Z,100081.13
2022-08-31T17:04:53.919Z,100084.69
2022-08-31T17:07:22.624Z,100085.72
2022-08-31T17:09:49.227Z,100089.75
2022-08-31T17:12:21.835Z,100086.06
2022-08-31T17:14:52.835Z,100076.44
2022-08-31T17:17:25.663Z,100052.53
2022-08-31T17:19:54.544Z,100028.53
2022-08-31T17:22:30.061Z,100018.06
2022-08-31T17:25:03.116Z,100033.25
2022-08-31T17:27:34.647Z,100050.00
2022-08-31T17:30:08.038Z,100059.50
2022-08-31T17:32:44.687Z,100066.91
2022-08-31T17:35:17.537Z,100062.16
2022-08-31T17:37:44.500Z,100065.22
2022-08-31T17:40:14.653Z,100056.38
2022-08-31T17:42:42.144Z,100056.53
2022-08-31T17:45:09.861Z,100023.84
2022-08-31T17:47:36.557Z,100005.97
2022-08-31T17:50:04.115Z,100022.59
2022-08-31T17:52:30.896Z,100023.72
2022-08-31T17:55:01.952Z,100012.28
2022-08-31T17:57:29.747Z,99985.44
2022-08-31T17:59:56.797Z,99966.13
2022-08-31T18:02:31.435Z,99949.44
2022-08-31T18:04:58.706Z,99945.09
2022-08-31T18:07:25.526Z,99939.34
2022-08-31T18:09:53.975Z,99924.56
2022-08-31T18:12:22.264Z,99913.81
2022-08-31T18:14:49.122Z,99911.94
2022-08-31T18:17:16.427Z,99904.84
2022-08-31T18:19:47.049Z,99904.38
2022-08-31T18:22:14.751Z,99904.69
2022-08-31T18:24:42.901Z,99893.75
2022-08-31T18:27:11.737Z,99881.25
2022-08-31T18:29:39.060Z,99868.19
2022-08-31T18:32:07.322Z,99864.19
2022-08-31T18:34:41.372Z,99878.97
2022-08-31T18:37:09.874Z,99890.25
2022-08-31T18:39:59.935Z,99899.56
2022-08-31T18:42:51.257Z,99894.72
2022-08-31T18:45:21.080Z,99887.63
2022-08-31T18:50:44.599Z,99856.91
2022-08-31T18:53:15.294Z,99847.09
2022-08-31T18:55:44.543Z,99846.75
2022-08-31T18:58:13.891Z,99832.94
2022-08-31T19:00:40.771Z,99835.78
2022-08-31T19:03:07.955Z,99832.88
2022-08-31T19:05:38.801Z,99841.97
2022-08-31T19:08:05.465Z,99840.53
2022-08-31T19:10:32.228Z,99824.44
2022-08-31T19:13:01.244Z,99819.44
2022-08-31T19:15:35.945Z,99806.13
2022-08-31T19:18:03.528Z,99802.06
2022-08-31T19:20:30.563Z,99806.88
2022-08-31T19:22:57.456Z,99816.47
2022-08-31T19:25:24.673Z,99822.16
2022-08-31T19:27:52.087Z,99825.16
2022-08-31T19:30:23.297Z,99817.72
2022-08-31T19:32:51.341Z,99821.69
2022-08-31T19:35:18.317Z,99808.34
2022-08-31T19:37:45.356Z,99794.34
2022-08-31T19:40:18.155Z,99793.38
2022-08-31T19:43:53.354Z,99770.00
2022-08-31T19:45:43.168Z,99764.16
2022-08-31T19:48:12.304Z,99758.22
2022-08-31T19:50:42.249Z,99747.34
2022-08-31T19:53:12.753Z,99744.72
2022-08-31T19:55:51.088Z,99742.78
2022-08-31T19:58:19.694Z,99725.81
2022-08-31T20:00:48.413Z,99705.03
2022-08-31T20:03:16.197Z,99711.91
2022-08-31T20:05:43.723Z,99714.13
2022-08-31T20:08:12.477Z,99708.25
2022-08-31T20:10:44.225Z,99706.38
2022-08-31T20:13:12.820Z,99715.53
2022-08-31T20:15:44.884Z,99708.03
2022-08-31T20:18:12.900Z,99700.22
2022-08-31T20:20:45.698Z,99699.41
2022-08-31T20:23:17.069Z,99695.16
2022-08-31T20:25:45.429Z,99684.91
2022-08-31T20:28:13.464Z,99689.22
2022-08-31T20:30:42.016Z,99696.91
2022-08-31T20:33:09.776Z,99698.50
2022-08-31T20:35:45.035Z,99705.22
2022-08-31T20:38:14.541Z,99705.38
2022-08-31T20:40:43.487Z,99706.97
2022-08-31T20:43:12.787Z,99697.88
2022-08-31T20:45:41.702Z,99680.22
2022-08-31T20:48:27.601Z,99676.41
2022-08-31T20:50:55.945Z,99658.09
2022-08-31T20:53:39.072Z,99657.88
2022-08-31T20:56:17.011Z,99644.94
2022-08-31T20:58:45.757Z,99635.94
2022-08-31T21:01:14.241Z,99626.16
2022-08-31T21:03:41.488Z,99626.28
2022-08-31T21:06:11.770Z,99628.78
2022-08-31T21:08:42.786Z,99630.28
2022-08-31T21:11:15.443Z,99628.78
2022-08-31T21:13:46.756Z,99617.59
2022-08-31T21:16:15.086Z,99622.44
2022-08-31T21:18:41.918Z,99624.03
2022-08-31T21:21:14.590Z,99640.34
2022-08-31T21:23:41.761Z,99635.91
2022-08-31T21:26:14.081Z,99641.72
2022-08-31T21:28:40.766Z,99642.72
2022-08-31T21:31:15.405Z,99638.16
2022-08-31T21:33:45.211Z,99632.25
2022-08-31T21:36:17.584Z,99631.31
2022-08-31T21:38:45.356Z,99640.97
2022-08-31T21:41:14.765Z,99640.34
2022-08-31T21:43:41.525Z,99633.13
2022-08-31T21:46:16.202Z,99630.69
2022-08-31T21:48:44.557Z,99630.09
2022-08-31T21:51:20.354Z,99625.63
2022-08-31T21:53:51.824Z,99619.53
2022-08-31T21:56:23.291Z,99635.59
2022-08-31T21:58:50.632Z,99638.66
2022-08-31T22:01:18.932Z,99643.97
2022-08-31T22:03:50.723Z,99647.19
2022-08-31T22:06:26.788Z,99648.97
2022-08-31T22:09:00.342Z,99653.63
2022-08-31T22:11:30.953Z,99655.09
2022-08-31T22:13:59.412Z,99664.22
2022-08-31T22:16:27.885Z,99674.50
2022-08-31T22:19:02.034Z,99673.25
2022-08-31T22:21:31.271Z,99679.63
2022-08-31T22:24:00.865Z,99674.00
2022-08-31T22:26:30.566Z,99672.88
2022-08-31T22:28:59.257Z,99668.44
2022-08-31T22:31:27.498Z,99674.22
2022-08-31T22:33:54.811Z,99679.69
2022-08-31T22:36:31.908Z,99690.56
2022-08-31T22:39:08.419Z,99696.66
2022-08-31T22:41:37.505Z,99706.91
2022-08-31T22:44:06.552Z,99705.94
2022-08-31T22:46:34.551Z,99709.16
2022-08-31T22:49:02.156Z,99710.75
2022-08-31T22:51:29.034Z,99705.31
2022-08-31T22:53:55.708Z,99703.69
2022-08-31T22:56:26.492Z,99710.56
2022-08-31T22:59:00.697Z,99710.56
2022-08-31T23:01:30.391Z,99705.56
2022-08-31T23:03:59.101Z,99711.50
2022-08-31T23:06:27.253Z,99723.06
2022-08-31T23:08:56.285Z,99722.91
2022-08-31T23:11:24.870Z,99716.34
2022-08-31T23:13:57.475Z,99718.06
2022-08-31T23:16:26.799Z,99725.13
2022-08-31T23:18:57.718Z,99726.56
2022-08-31T23:21:26.257Z,99735.03
2022-08-31T23:23:55.444Z,99734.06
2022-08-31T23:26:25.485Z,99731.97
2022-08-31T23:28:53.592Z,99732.84
2022-08-31T23:31:21.944Z,99727.53
2022-08-31T23:33:53.308Z,99724.31
2022-08-31T23:36:26.201Z,99730.50
2022-08-31T23:38:58.045Z,99722.63
2022-08-31T23:41:30.165Z,99713.06
2022-08-31T23:43:58.983Z,99715.97
2022-08-31T23:46:26.154Z,99710.19
2022-08-31T23:48:53.648Z,99713.56
2022-08-31T23:51:23.665Z,99717.72
2022-08-31T23:53:57.215Z,99706.03
2022-08-31T23:56:32.622Z,99714.66
2022-08-31T23:59:06.658Z,99673.00
